New Century — V7GF8 — position and weather

sailwx.info

Track history (hours):
 
Tides and Currents Weather Stations Pressure Air Temp Water Temp Dewpoint Dewpoint Depression Visibility Wind Speed Wind Dir Waves Ship Positions

New Century

Last reported at 2014-Aug-27 13:32 UTC. Time now 2014-Sep-01 21:30 UTC.
Position N 29°21' W 094°46'.

Length 228 m; draft 11.9 m.

Type: Tanker. MMSI: 538002085.

Date/timePositionNaut miles runAvg speedWind from/ knotsBaromVisibWave heightAir tempDewpointWater temp
2014-Aug-27 13:32N 29°21' W 094°46'10 9.8
2014-Aug-27 12:33N 29°29' W 094°52'10 9.9
2014-Aug-27 11:33N 29°37' W 094°58'8 7.6
2014-Aug-27 10:33N 29°44' W 095°02'  
2014-Aug-25 00:08N 29°45' W 095°06'0 0.6
2014-Aug-24 23:33N 29°45' W 095°06'5 4.7
2014-Aug-24 22:33N 29°43' W 095°01'8 8.5
2014-Aug-24 21:33N 29°35' W 094°56'1211.7
2014-Aug-24 20:33N 29°25' W 094°50'6 0.8
2014-Aug-24 13:21N 29°21' W 094°44'0 0.0
2014-Aug-24 12:27N 29°21' W 094°44'0 0.0
2014-Aug-24 11:33N 29°21' W 094°44'0 0.0
2014-Aug-24 09:33N 29°21' W 094°44'0 0.0
2014-Aug-24 08:33N 29°21' W 094°44'0 0.0
2014-Aug-23 02:29N 29°21' W 094°44'0 0.0
2014-Aug-22 19:19N 29°21' W 094°44'0 0.0
2014-Aug-22 18:33N 29°21' W 094°44'0 0.0
2014-Aug-22 14:19N 29°21' W 094°44'0 0.0
2014-Aug-22 13:24N 29°21' W 094°44'0 0.0
2014-Aug-22 12:33N 29°21' W 094°44'0 0.0
2014-Aug-22 11:33N 29°21' W 094°44'0 0.2
2014-Aug-22 10:33N 29°21' W 094°45'1 0.9
2014-Aug-22 09:31N 29°20' W 094°45'1 0.3
2014-Aug-22 05:32N 29°21' W 094°44'8 8.0
2014-Aug-22 04:32N 29°27' W 094°51'1111.2
2014-Aug-22 03:33N 29°36' W 094°57'9 8.7
2014-Aug-22 02:33N 29°44' W 095°02'5 5.4
2014-Aug-22 01:33N 29°44' W 095°08'3 3.1
2014-Aug-22 00:26N 29°45' W 095°12'0 0.0
2014-Aug-21 22:20N 29°45' W 095°12'0 0.0
2014-Aug-21 21:29N 29°45' W 095°12'0 0.0
2014-Aug-21 20:32N 29°45' W 095°12'0 0.0
2014-Aug-21 19:29N 29°45' W 095°12'0 0.0
2014-Aug-21 18:32N 29°45' W 095°12'0 0.0
2014-Aug-21 17:32N 29°45' W 095°12'0 0.0
2014-Aug-21 16:32N 29°45' W 095°12'0 0.0
2014-Aug-21 15:29N 29°45' W 095°12'0 0.0
2014-Aug-21 14:32N 29°45' W 095°12'0 0.0
2014-Aug-21 13:32N 29°45' W 095°12'0 0.0
2014-Aug-21 12:32N 29°45' W 095°12'0 0.0
2014-Aug-21 11:32N 29°45' W 095°12'0 0.0
2014-Aug-21 10:32N 29°45' W 095°12'0 0.0
2014-Aug-21 09:32N 29°45' W 095°12'0 0.0
2014-Aug-21 08:32N 29°45' W 095°12'0 0.0
2014-Aug-21 07:32N 29°45' W 095°12'0 0.0
2014-Aug-21 06:32N 29°45' W 095°12'0 0.0
2014-Aug-21 05:32N 29°45' W 095°12'0 0.0
2014-Aug-21 04:32N 29°45' W 095°12'0 0.0
2014-Aug-21 03:26N 29°45' W 095°12'0 0.0
2014-Aug-21 02:32N 29°45' W 095°12'0 0.0
2014-Aug-21 01:32N 29°45' W 095°12'0 0.0
2014-Aug-21 00:29N 29°45' W 095°12'0 0.0
2014-Aug-20 23:32N 29°45' W 095°12'0 0.0
2014-Aug-20 22:32N 29°45' W 095°12'0 0.0
2014-Aug-20 21:32N 29°45' W 095°12'0 0.0
2014-Aug-20 20:32N 29°45' W 095°12'0 0.0
2014-Aug-20 19:25N 29°45' W 095°12'0 0.0
2014-Aug-20 18:28N 29°45' W 095°12'0 0.0
2014-Aug-20 17:31N 29°45' W 095°12'0 0.0
2014-Aug-20 16:31N 29°45' W 095°12'0 0.0
2014-Aug-20 15:31N 29°45' W 095°12'0 0.0
2014-Aug-20 14:31N 29°45' W 095°12'0 0.0
2014-Aug-20 13:31N 29°45' W 095°12'0 0.0
2014-Aug-20 12:28N 29°45' W 095°12'0 0.0
2014-Aug-20 11:31N 29°45' W 095°12'0 0.0
2014-Aug-20 10:28N 29°45' W 095°12'0 0.0
2014-Aug-20 09:31N 29°45' W 095°12'2 1.9
2014-Aug-20 08:33N 29°45' W 095°10'6 5.5
2014-Aug-20 07:33N 29°45' W 095°04'8 8.3
2014-Aug-20 06:34N 29°38' W 094°58'1211.6
2014-Aug-20 05:33N 29°28' W 094°51'  
Track history (hours):
 
Tides and Currents Weather Stations Pressure Air Temp Water Temp Dewpoint Dewpoint Depression Visibility Wind Speed Wind Dir Waves Ship Positions

New Century

Last reported at 2014-Aug-27 13:32 UTC. Time now 2014-Sep-01 21:30 UTC.
Position N 29°21' W 094°46'.

Length 228 m; draft 11.9 m.

Type: Tanker. MMSI: 538002085.

Date/timePositionNaut miles runAvg speedWind from/ knotsBaromVisibWave heightAir tempDewpointWater temp
2014-Aug-27 13:32N 29°21' W 094°46'10 9.8
2014-Aug-27 12:33N 29°29' W 094°52'10 9.9
2014-Aug-27 11:33N 29°37' W 094°58'8 7.6
2014-Aug-27 10:33N 29°44' W 095°02'  
2014-Aug-25 00:08N 29°45' W 095°06'0 0.6
2014-Aug-24 23:33N 29°45' W 095°06'5 4.7
2014-Aug-24 22:33N 29°43' W 095°01'8 8.5
2014-Aug-24 21:33N 29°35' W 094°56'1211.7
2014-Aug-24 20:33N 29°25' W 094°50'6 0.8
2014-Aug-24 13:21N 29°21' W 094°44'0 0.0
2014-Aug-24 12:27N 29°21' W 094°44'0 0.0
2014-Aug-24 11:33N 29°21' W 094°44'0 0.0
2014-Aug-24 09:33N 29°21' W 094°44'0 0.0
2014-Aug-24 08:33N 29°21' W 094°44'0 0.0
2014-Aug-23 02:29N 29°21' W 094°44'0 0.0
2014-Aug-22 19:19N 29°21' W 094°44'0 0.0
2014-Aug-22 18:33N 29°21' W 094°44'0 0.0
2014-Aug-22 14:19N 29°21' W 094°44'0 0.0
2014-Aug-22 13:24N 29°21' W 094°44'0 0.0
2014-Aug-22 12:33N 29°21' W 094°44'0 0.0
2014-Aug-22 11:33N 29°21' W 094°44'0 0.2
2014-Aug-22 10:33N 29°21' W 094°45'1 0.9
2014-Aug-22 09:31N 29°20' W 094°45'1 0.3
2014-Aug-22 05:32N 29°21' W 094°44'8 8.0
2014-Aug-22 04:32N 29°27' W 094°51'1111.2
2014-Aug-22 03:33N 29°36' W 094°57'9 8.7
2014-Aug-22 02:33N 29°44' W 095°02'5 5.4
2014-Aug-22 01:33N 29°44' W 095°08'3 3.1
2014-Aug-22 00:26N 29°45' W 095°12'0 0.0
2014-Aug-21 22:20N 29°45' W 095°12'0 0.0
2014-Aug-21 21:29N 29°45' W 095°12'0 0.0
2014-Aug-21 20:32N 29°45' W 095°12'0 0.0
2014-Aug-21 19:29N 29°45' W 095°12'0 0.0
2014-Aug-21 18:32N 29°45' W 095°12'0 0.0
2014-Aug-21 17:32N 29°45' W 095°12'0 0.0
2014-Aug-21 16:32N 29°45' W 095°12'0 0.0
2014-Aug-21 15:29N 29°45' W 095°12'0 0.0
2014-Aug-21 14:32N 29°45' W 095°12'0 0.0
2014-Aug-21 13:32N 29°45' W 095°12'0 0.0
2014-Aug-21 12:32N 29°45' W 095°12'0 0.0
2014-Aug-21 11:32N 29°45' W 095°12'0 0.0
2014-Aug-21 10:32N 29°45' W 095°12'0 0.0
2014-Aug-21 09:32N 29°45' W 095°12'0 0.0
2014-Aug-21 08:32N 29°45' W 095°12'0 0.0
2014-Aug-21 07:32N 29°45' W 095°12'0 0.0
2014-Aug-21 06:32N 29°45' W 095°12'0 0.0
2014-Aug-21 05:32N 29°45' W 095°12'0 0.0
2014-Aug-21 04:32N 29°45' W 095°12'0 0.0
2014-Aug-21 03:26N 29°45' W 095°12'0 0.0
2014-Aug-21 02:32N 29°45' W 095°12'0 0.0
2014-Aug-21 01:32N 29°45' W 095°12'0 0.0
2014-Aug-21 00:29N 29°45' W 095°12'0 0.0
2014-Aug-20 23:32N 29°45' W 095°12'0 0.0
2014-Aug-20 22:32N 29°45' W 095°12'0 0.0
2014-Aug-20 21:32N 29°45' W 095°12'0 0.0
2014-Aug-20 20:32N 29°45' W 095°12'0 0.0
2014-Aug-20 19:25N 29°45' W 095°12'0 0.0
2014-Aug-20 18:28N 29°45' W 095°12'0 0.0
2014-Aug-20 17:31N 29°45' W 095°12'0 0.0
2014-Aug-20 16:31N 29°45' W 095°12'0 0.0
2014-Aug-20 15:31N 29°45' W 095°12'0 0.0
2014-Aug-20 14:31N 29°45' W 095°12'0 0.0
2014-Aug-20 13:31N 29°45' W 095°12'0 0.0
2014-Aug-20 12:28N 29°45' W 095°12'0 0.0
2014-Aug-20 11:31N 29°45' W 095°12'0 0.0
2014-Aug-20 10:28N 29°45' W 095°12'0 0.0
2014-Aug-20 09:31N 29°45' W 095°12'2 1.9
2014-Aug-20 08:33N 29°45' W 095°10'6 5.5
2014-Aug-20 07:33N 29°45' W 095°04'8 8.3
2014-Aug-20 06:34N 29°38' W 094°58'1211.6
2014-Aug-20 05:33N 29°28' W 094°51'  

Dump ship's entire track history